Flugwetter

[source: ADDS]
METAR
LOWL 240020Z AUTO VRB02KT 9999 SCT200 18/16 Q1022 =
TAF LOWL 232315Z 2400/2424 08004KT 9999 FEW040 BKN300 TX28/2414Z TN17/2404Z TEMPO 2407/2419 11010KT
TAF
TAF LOWL 232315Z 2400/2424 08004KT 9999 FEW040 BKN300 TX28/2414Z TN17/2404Z TEMPO 2407/2419 11010KT =